FDBT weather

Tambuti Airport
Big Bend, Lubombo, Swaziland

Public forecast

Using degrees Celsius for public forecast. Weather courtesy of forecast.io.

METAR (pilot weather report)

Closest report is Siteki Airport, 19.5 nm (36.1 km) NNE. Retrieved 2019/09/22 19:00 UTC (15 minutes ago):

FDST 221900Z AUTO 00000KT //// // ////// 19/18 Q1016

TAF (pilot weather forecast)

Forecast is more than 12 hours old.

Closest forecast is Matsapha Airport, 28.0 nm (51.9 km) WNW. Retrieved 2019/06/03 12:35 UTC (4 months ago):

TAF FDMS 031000Z 0312/0418 12006KT CAVOK